Time;durP1;ratioP1;P1;durP2;ratioP2;P2;SDS_P1;SDS_P2;PMS_P1;PMS_P2;Temp;Humidity;BMP_temperature;BMP_pressure;BME280_temperature;BME280_humidity;BME280_pressure;Samples;Min_cycle;Max_cycle;Signal;HPM_P1;HPM_P2
2023/01/31 00:19:29;;;;;;;6.87;4.33;;;1.90;99.90;;;;;;6257133;22;20462;-87
2023/01/31 00:24:31;;;;;;;7.13;3.97;;;1.90;99.90;;;;;;6248539;22;20522;-90
2023/01/31 00:26:58;;;;;;;8.13;5.17;;;4.00;99.90;;;;;;6269017;23;20403;-88
2023/01/31 00:32:01;;;;;;;11.40;5.00;;;1.90;99.90;;;;;;6257830;22;20565;-89
2023/01/31 00:34:29;;;;;;;7.30;4.77;;;1.40;99.90;;;;;;6268691;22;20496;-88
2023/01/31 00:36:56;;;;;;;7.87;4.27;;;2.20;99.90;;;;;;6267183;22;20445;-88
2023/01/31 00:39:23;;;;;;;8.53;4.93;;;3.60;99.90;;;;;;6270187;22;20483;-89
2023/01/31 00:41:50;;;;;;;3.90;2.80;;;1.90;99.90;;;;;;6268210;23;20399;-88
2023/01/31 00:44:17;;;;;;;8.40;5.10;;;1.70;99.90;;;;;;6272919;22;20448;-84
2023/01/31 00:46:44;;;;;;;10.13;6.00;;;1.60;99.90;;;;;;6275148;22;20465;-83
2023/01/31 00:49:11;;;;;;;5.37;4.60;;;2.30;99.90;;;;;;6263631;22;20485;-87
2023/01/31 00:51:40;;;;;;;7.40;4.23;;;2.10;99.90;;;;;;6256189;23;20414;-89
2023/01/31 00:54:07;;;;;;;5.97;5.27;;;3.00;99.90;;;;;;6259623;23;20911;-90
2023/01/31 00:56:34;;;;;;;6.67;4.70;;;1.80;99.90;;;;;;6255049;22;20461;-88
2023/01/31 01:06:49;;;;;;;13.50;6.93;;;1.90;99.90;;;;;;6243980;22;20239;-84
2023/01/31 01:09:16;;;;;;;8.43;4.70;;;2.10;99.90;;;;;;6269205;22;20414;-89
2023/01/31 01:11:43;;;;;;;7.50;4.13;;;2.10;99.90;;;;;;6249158;23;20444;-88
2023/01/31 01:14:10;;;;;;;5.20;4.20;;;1.90;99.90;;;;;;6264183;22;20400;-88
2023/01/31 01:16:38;;;;;;;14.20;5.70;;;1.70;99.90;;;;;;6254841;23;20404;-85
2023/01/31 01:19:06;;;;;;;13.27;4.80;;;1.70;99.90;;;;;;6261640;23;20470;-89
2023/01/31 01:21:37;;;;;;;6.07;3.93;;;1.70;99.90;;;;;;6256214;23;20501;-90
2023/01/31 01:24:08;;;;;;;6.70;4.47;;;2.10;99.90;;;;;;6271200;22;20417;-89
2023/01/31 01:26:35;;;;;;;11.80;5.60;;;1.80;99.90;;;;;;6253002;23;20414;-89
2023/01/31 01:29:03;;;;;;;8.70;5.53;;;3.70;99.90;;;;;;6271030;22;20473;-88
2023/01/31 01:31:32;;;;;;;7.27;4.70;;;1.70;99.90;;;;;;6270350;22;20417;-89
2023/01/31 01:34:01;;;;;;;6.90;4.73;;;1.70;99.90;;;;;;6271306;22;20421;-88
2023/01/31 01:36:28;;;;;;;10.80;6.30;;;2.20;99.90;;;;;;6249899;23;20409;-88
2023/01/31 01:38:55;;;;;;;4.90;4.40;;;2.40;99.90;;;;;;6249095;23;20404;-90
2023/01/31 01:41:24;;;;;;;7.33;4.20;;;3.40;99.90;;;;;;6249753;22;20473;-87
2023/01/31 01:43:53;;;;;;;8.93;4.70;;;1.20;99.90;;;;;;6253600;23;20489;-89
2023/01/31 01:46:25;;;;;;;6.37;5.20;;;3.60;99.90;;;;;;6251580;23;20482;-88
2023/01/31 01:48:56;;;;;;;8.07;4.27;;;1.80;99.90;;;;;;6247828;23;20421;-92
2023/01/31 01:51:24;;;;;;;5.80;3.77;;;1.60;99.90;;;;;;6248751;22;20556;-89
2023/01/31 01:53:54;;;;;;;9.03;5.33;;;1.80;99.90;;;;;;6271327;22;20407;-83
2023/01/31 01:56:26;;;;;;;7.87;5.43;;;1.80;99.90;;;;;;6274719;22;20382;-82
2023/01/31 01:58:57;;;;;;;8.67;5.90;;;1.70;99.90;;;;;;6246638;22;20454;-88
2023/01/31 02:01:29;;;;;;;8.40;5.90;;;1.90;99.90;;;;;;6266595;22;20452;-88
2023/01/31 02:03:56;;;;;;;7.27;5.00;;;1.90;99.90;;;;;;6267002;22;20412;-88
2023/01/31 02:06:23;;;;;;;7.37;4.63;;;2.00;99.90;;;;;;6264211;22;20438;-88
2023/01/31 02:08:50;;;;;;;8.40;5.10;;;1.70;99.90;;;;;;6256223;22;20437;-87
2023/01/31 02:11:21;;;;;;;7.40;5.60;;;1.60;99.90;;;;;;6274812;22;20441;-80
2023/01/31 02:19:00;;;;;;;10.20;6.13;;;1.70;99.90;;;;;;6218091;22;20417;-90
2023/01/31 02:30:05;;;;;;;11.50;6.07;;;1.60;99.90;;;;;;6253407;22;20472;-87
2023/01/31 02:32:48;;;;;;;11.23;6.13;;;1.90;99.90;;;;;;6253081;22;20600;-87
2023/01/31 02:35:26;;;;;;;8.33;5.03;;;1.70;99.90;;;;;;6259355;22;20466;-89
2023/01/31 02:38:04;;;;;;;8.03;4.77;;;1.40;99.90;;;;;;6248331;23;20878;-87
2023/01/31 02:40:39;;;;;;;10.20;4.77;;;1.60;99.90;;;;;;6248187;23;20474;-89
2023/01/31 02:43:13;;;;;;;6.80;3.93;;;1.60;99.90;;;;;;6260329;22;20393;-81
2023/01/31 02:45:48;;;;;;;10.90;6.50;;;1.60;99.90;;;;;;6244513;22;20443;-82
2023/01/31 02:48:24;;;;;;;6.00;5.30;;;1.40;99.90;;;;;;6250017;22;20481;-79
2023/01/31 02:51:00;;;;;;;10.30;5.97;;;2.00;99.90;;;;;;6243589;22;20421;-82
2023/01/31 02:53:31;;;;;;;10.00;4.93;;;2.00;99.90;;;;;;6244143;22;20470;-81
2023/01/31 02:56:13;;;;;;;7.60;5.60;;;1.70;99.90;;;;;;6225058;22;20544;-87
2023/01/31 03:19:48;;;;;;;7.03;5.20;;;1.30;99.90;;;;;;6221472;22;20436;-80
2023/01/31 03:24:51;;;;;;;5.40;4.33;;;1.60;99.90;;;;;;6256500;22;20468;-85
2023/01/31 03:27:19;;;;;;;5.70;3.80;;;1.50;99.90;;;;;;6274748;22;20425;-80
2023/01/31 03:32:28;;;;;;;6.30;5.37;;;1.50;99.90;;;;;;6236378;22;20452;-85
2023/01/31 03:34:55;;;;;;;9.00;4.93;;;1.20;99.90;;;;;;6274417;22;20397;-80
2023/01/31 03:37:31;;;;;;;5.03;4.53;;;1.40;99.90;;;;;;6275904;22;20426;-80
2023/01/31 03:40:05;;;;;;;6.40;5.20;;;1.50;99.90;;;;;;6275613;22;20425;-80
2023/01/31 03:53:35;;;;;;;7.40;4.03;;;1.50;99.90;;;;;;6222287;22;20457;-87
2023/01/31 03:56:07;;;;;;;7.43;6.03;;;1.20;99.90;;;;;;6250960;23;20444;-88
2023/01/31 03:58:38;;;;;;;7.43;4.70;;;1.20;99.90;;;;;;6256822;23;20441;-89
2023/01/31 04:01:09;;;;;;;7.00;5.03;;;1.20;99.90;;;;;;6264588;23;20858;-89
2023/01/31 04:03:40;;;;;;;11.20;5.00;;;0.80;99.90;;;;;;6250622;23;20435;-86
2023/01/31 04:06:08;;;;;;;9.60;4.60;;;1.20;99.90;;;;;;6248018;23;20398;-89
2023/01/31 04:11:57;;;;;;;5.73;4.20;;;1.10;99.90;;;;;;6252927;22;20454;-82
2023/01/31 04:14:26;;;;;;;8.63;4.67;;;1.20;99.90;;;;;;6252960;23;20417;-81
2023/01/31 04:16:53;;;;;;;8.90;5.13;;;2.30;99.90;;;;;;6251860;23;20410;-82
2023/01/31 04:19:19;;;;;;;6.03;4.63;;;1.50;99.90;;;;;;6247313;23;20477;-85
2023/01/31 04:21:47;;;;;;;5.53;4.60;;;0.90;99.90;;;;;;6253288;23;20406;-81
2023/01/31 04:24:15;;;;;;;8.63;4.47;;;1.40;99.90;;;;;;6254009;23;20414;-82
2023/01/31 04:26:41;;;;;;;11.10;5.83;;;2.60;99.90;;;;;;6246105;23;20489;-82
2023/01/31 04:31:57;;;;;;;7.30;4.83;;;3.10;99.90;;;;;;6251505;23;20424;-83
2023/01/31 04:34:23;;;;;;;8.73;5.37;;;0.90;99.90;;;;;;6251142;23;20405;-80
2023/01/31 04:37:00;;;;;;;6.97;5.60;;;1.20;99.90;;;;;;6246817;23;20419;-80
2023/01/31 04:39:27;;;;;;;9.13;5.17;;;1.00;99.90;;;;;;6256301;23;20450;-82
2023/01/31 04:41:53;;;;;;;8.83;3.93;;;0.70;99.90;;;;;;6251642;23;20508;-86
2023/01/31 04:44:20;;;;;;;8.67;6.47;;;0.90;99.90;;;;;;6249435;23;20452;-81
2023/01/31 04:46:47;;;;;;;6.80;3.90;;;0.90;99.90;;;;;;6252441;23;20402;-82
2023/01/31 04:51:56;;;;;;;10.33;4.83;;;0.90;99.90;;;;;;6244617;23;20773;-86
2023/01/31 04:54:23;;;;;;;12.47;7.13;;;0.90;99.90;;;;;;6250849;23;20417;-80
2023/01/31 04:56:55;;;;;;;7.27;4.03;;;3.00;99.90;;;;;;6256754;23;20466;-80
2023/01/31 04:59:35;;;;;;;7.83;5.30;;;2.20;99.90;;;;;;6248642;23;20853;-79
2023/01/31 05:02:03;;;;;;;7.10;5.20;;;1.30;99.90;;;;;;6256481;23;20532;-79
2023/01/31 05:04:46;;;;;;;8.30;4.40;;;0.80;99.90;;;;;;6254320;23;20461;-82
2023/01/31 05:07:20;;;;;;;15.97;4.60;;;1.10;99.90;;;;;;6250772;23;20469;-81
2023/01/31 05:09:47;;;;;;;8.50;4.50;;;0.90;99.90;;;;;;6257010;23;20440;-80
2023/01/31 05:12:17;;;;;;;11.30;5.50;;;1.20;99.90;;;;;;6262007;23;20418;-81
2023/01/31 05:14:45;;;;;;;7.00;4.30;;;0.90;99.90;;;;;;6259014;23;20393;-80
2023/01/31 05:17:24;;;;;;;6.57;4.40;;;0.80;99.90;;;;;;6255932;23;20507;-80
2023/01/31 05:20:04;;;;;;;10.90;5.03;;;0.90;99.90;;;;;;6254547;23;20414;-80
2023/01/31 05:22:31;;;;;;;7.07;4.47;;;0.70;99.90;;;;;;6253664;23;20420;-80
2023/01/31 05:24:58;;;;;;;11.13;4.37;;;0.90;99.90;;;;;;6247390;23;21032;-77
2023/01/31 05:27:25;;;;;;;11.70;4.40;;;0.90;99.90;;;;;;6252644;23;20818;-81
2023/01/31 05:29:52;;;;;;;12.07;5.87;;;0.90;99.90;;;;;;6252222;23;20485;-82
2023/01/31 05:32:19;;;;;;;6.20;3.93;;;0.90;99.90;;;;;;6247355;23;20425;-82
2023/01/31 05:42:33;;;;;;;7.43;4.73;;;1.00;99.90;;;;;;6243474;22;20870;-79
2023/01/31 05:45:00;;;;;;;6.47;4.10;;;1.00;99.90;;;;;;6239811;23;20615;-79
2023/01/31 05:47:28;;;;;;;9.60;5.50;;;1.10;99.90;;;;;;6243336;23;20424;-78
2023/01/31 05:49:55;;;;;;;8.70;4.00;;;1.00;99.90;;;;;;6243963;23;20413;-78
2023/01/31 05:52:21;;;;;;;8.90;5.50;;;1.00;99.90;;;;;;6245661;23;20430;-80
2023/01/31 05:54:48;;;;;;;7.40;3.93;;;1.00;99.90;;;;;;6238072;22;20464;-80
2023/01/31 05:57:15;;;;;;;4.53;3.90;;;2.70;99.90;;;;;;6262633;22;21094;-80
2023/01/31 05:59:43;;;;;;;8.23;4.80;;;2.60;99.90;;;;;;6272359;22;20464;-81
2023/01/31 06:17:44;;;;;;;4.83;3.70;;;0.90;99.90;;;;;;6191610;22;20397;-79
2023/01/31 07:25:24;;;;;;;10.87;5.37;;;0.80;99.90;;;;;;6229218;22;20456;-82
2023/01/31 08:09:18;;;;;;;6.43;4.37;;;1.20;99.90;;;;;;6243640;22;21034;-78
2023/01/31 08:11:45;;;;;;;7.63;4.60;;;1.20;99.90;;;;;;6249745;23;20498;-79
2023/01/31 08:24:49;;;;;;;9.60;3.77;;;1.10;99.90;;;;;;6214832;23;20509;-80
2023/01/31 08:40:14;;;;;;;8.93;3.70;;;1.30;99.90;;;;;;6270404;22;20512;-80
2023/01/31 08:42:41;;;;;;;11.13;5.37;;;1.80;99.90;;;;;;6271546;22;20416;-88
2023/01/31 08:45:09;;;;;;;10.37;3.80;;;1.20;99.90;;;;;;6264868;23;20402;-88
2023/01/31 08:47:37;;;;;;;8.20;4.23;;;1.60;99.90;;;;;;6268271;22;20411;-85
2023/01/31 08:52:39;;;;;;;10.00;4.53;;;1.50;99.90;;;;;;6260892;22;20477;-89
2023/01/31 08:55:09;;;;;;;7.83;3.40;;;1.70;99.90;;;;;;6274122;22;20385;-84
2023/01/31 08:57:37;;;;;;;8.63;4.23;;;1.80;99.90;;;;;;6270269;22;20413;-88
2023/01/31 09:00:05;;;;;;;4.90;3.50;;;1.70;99.90;;;;;;6269184;22;20430;-85
2023/01/31 09:02:32;;;;;;;6.23;3.67;;;1.80;99.90;;;;;;6269229;22;20410;-88
2023/01/31 09:04:58;;;;;;;8.23;4.20;;;1.90;99.90;;;;;;6268364;22;20445;-84
2023/01/31 09:07:25;;;;;;;5.93;3.50;;;1.10;99.90;;;;;;6271756;22;20421;-89
2023/01/31 09:09:52;;;;;;;9.97;4.50;;;1.80;99.90;;;;;;6272615;22;20425;-87
2023/01/31 09:15:05;;;;;;;11.27;4.57;;;3.20;99.90;;;;;;6268587;22;20418;-81
2023/01/31 09:17:32;;;;;;;4.43;3.27;;;2.10;99.90;;;;;;6274970;22;20409;-84
2023/01/31 09:20:00;;;;;;;6.30;4.30;;;1.70;99.90;;;;;;6273837;22;20449;-86
2023/01/31 09:22:30;;;;;;;9.30;5.20;;;2.20;99.90;;;;;;6273326;22;20439;-87
2023/01/31 09:24:57;;;;;;;10.10;4.80;;;2.20;99.90;;;;;;6270952;22;20418;-80
2023/01/31 09:27:24;;;;;;;10.67;4.40;;;1.90;99.90;;;;;;6274596;22;20436;-81
2023/01/31 09:29:51;;;;;;;9.90;2.90;;;1.90;99.90;;;;;;6274718;22;20393;-85
2023/01/31 09:32:20;;;;;;;5.20;3.10;;;2.00;99.90;;;;;;6274467;22;20398;-84
2023/01/31 09:34:47;;;;;;;7.33;5.53;;;2.90;99.90;;;;;;6275076;22;20465;-85
2023/01/31 09:37:15;;;;;;;4.37;2.87;;;2.70;99.90;;;;;;6272899;22;20410;-83
2023/01/31 09:39:42;;;;;;;7.47;3.27;;;2.20;99.90;;;;;;6273202;22;20483;-89
2023/01/31 09:42:19;;;;;;;7.40;3.90;;;2.30;99.90;;;;;;6269471;22;20457;-88
2023/01/31 09:44:56;;;;;;;11.23;3.47;;;2.60;99.90;;;;;;6269394;23;20379;-85
2023/01/31 09:47:28;;;;;;;8.00;2.80;;;2.50;99.90;;;;;;6272512;22;20413;-86
2023/01/31 09:49:58;;;;;;;11.40;3.30;;;2.40;99.90;;;;;;6261990;23;20448;-84
2023/01/31 09:55:00;;;;;;;8.27;2.87;;;2.60;99.90;;;;;;6254333;22;20442;-83
2023/01/31 09:57:40;;;;;;;5.80;4.17;;;2.70;99.90;;;;;;6264230;23;20429;-84
2023/01/31 10:00:29;;;;;;;4.90;3.10;;;2.60;99.90;;;;;;6270349;22;20496;-86
2023/01/31 10:03:16;;;;;;;8.03;3.00;;;2.30;99.90;;;;;;6272038;22;20458;-87
2023/01/31 10:05:49;;;;;;;9.50;3.93;;;3.50;99.90;;;;;;6269797;22;20414;-87
2023/01/31 10:08:26;;;;;;;8.50;3.30;;;2.90;99.90;;;;;;6271631;22;20448;-91
2023/01/31 10:10:59;;;;;;;7.47;3.20;;;3.70;99.90;;;;;;6271003;22;20441;-85
2023/01/31 10:21:24;;;;;;;9.60;3.53;;;3.00;99.90;;;;;;6258115;22;20468;-83
2023/01/31 10:31:43;;;;;;;8.40;2.60;;;2.80;99.90;;;;;;6218979;22;21365;-86
2023/01/31 10:34:17;;;;;;;6.20;3.10;;;3.90;99.90;;;;;;6263068;23;20454;-90
2023/01/31 10:39:26;;;;;;;8.03;3.63;;;3.20;99.90;;;;;;6251009;22;20445;-90
2023/01/31 10:42:09;;;;;;;6.13;2.40;;;2.20;99.90;;;;;;6264795;23;20421;-89
2023/01/31 10:44:47;;;;;;;6.07;2.50;;;3.90;99.90;;;;;;6260877;22;20444;-90
2023/01/31 10:47:17;;;;;;;5.40;3.47;;;3.80;99.90;;;;;;6234925;22;20383;-90
2023/01/31 10:49:48;;;;;;;2.63;2.37;;;2.50;99.90;;;;;;6261827;22;20469;-88
2023/01/31 10:52:41;;;;;;;6.97;3.47;;;3.00;99.90;;;;;;6252609;22;20617;-89
2023/01/31 10:55:29;;;;;;;5.30;3.10;;;1.10;99.90;;;;;;6268339;22;20402;-88
2023/01/31 10:57:57;;;;;;;4.93;2.43;;;2.60;99.90;;;;;;6269965;22;20493;-90
2023/01/31 11:00:30;;;;;;;9.73;4.50;;;4.10;99.90;;;;;;6242647;22;21625;-83
2023/01/31 11:26:30;;;;;;;9.57;3.90;;;2.50;99.90;;;;;;6246880;22;20436;-90
2023/01/31 11:28:58;;;;;;;6.70;3.50;;;2.80;99.90;;;;;;6264139;22;20463;-89
2023/01/31 11:39:26;;;;;;;3.67;3.27;;;2.50;99.90;;;;;;6237163;22;20444;-89
2023/01/31 11:41:53;;;;;;;5.97;3.97;;;2.10;99.90;;;;;;6273728;22;20515;-84
2023/01/31 11:47:02;;;;;;;7.37;3.63;;;2.50;99.90;;;;;;6244259;22;20452;-90
2023/01/31 11:49:32;;;;;;;6.87;3.30;;;4.10;99.90;;;;;;6267365;22;20437;-89
2023/01/31 11:54:36;;;;;;;6.23;4.43;;;2.70;99.90;;;;;;6269652;22;22272;-88
2023/01/31 12:10:01;;;;;;;4.90;3.67;;;2.70;99.90;;;;;;6255607;22;20437;-90
2023/01/31 12:17:44;;;;;;;7.80;4.17;;;2.70;99.90;;;;;;6220648;22;20331;-79
2023/01/31 12:22:55;;;;;;;6.87;5.00;;;2.80;99.90;;;;;;6255747;22;20461;-83
2023/01/31 12:25:34;;;;;;;9.40;4.83;;;2.60;99.90;;;;;;6251564;22;20973;-88
2023/01/31 12:28:29;;;;;;;7.43;4.10;;;3.10;99.90;;;;;;6268553;23;20389;-88
2023/01/31 12:31:19;;;;;;;5.27;4.63;;;1.90;99.90;;;;;;6271965;22;20442;-88
2023/01/31 12:33:57;;;;;;;4.67;3.83;;;2.90;99.90;;;;;;6274546;22;20378;-88
2023/01/31 12:39:14;;;;;;;8.33;3.90;;;2.70;99.90;;;;;;6272178;22;20434;-87
2023/01/31 12:41:56;;;;;;;10.93;5.20;;;2.50;99.90;;;;;;6273078;22;20402;-90
2023/01/31 12:44:43;;;;;;;7.17;4.40;;;3.10;99.90;;;;;;6267836;23;20390;-86
2023/01/31 12:47:33;;;;;;;6.90;4.90;;;2.80;99.90;;;;;;6270164;22;20393;-89
2023/01/31 12:50:26;;;;;;;6.90;4.87;;;2.80;99.90;;;;;;6273565;22;20389;-86
2023/01/31 12:53:16;;;;;;;7.87;4.07;;;2.70;99.90;;;;;;6269133;22;20509;-88
2023/01/31 12:55:52;;;;;;;8.23;4.73;;;2.80;99.90;;;;;;6272153;22;20421;-80
2023/01/31 12:58:38;;;;;;;9.70;4.50;;;2.90;99.90;;;;;;6272029;23;20388;-82
2023/01/31 13:01:08;;;;;;;7.03;4.67;;;3.00;99.90;;;;;;6270876;22;20476;-87
2023/01/31 13:04:04;;;;;;;7.83;3.30;;;3.00;99.90;;;;;;6266010;23;20412;-85
2023/01/31 13:06:35;;;;;;;8.03;4.87;;;3.40;99.90;;;;;;6257958;23;20421;-86
2023/01/31 13:09:10;;;;;;;10.17;5.20;;;3.30;99.90;;;;;;6269890;23;20421;-82
2023/01/31 13:11:42;;;;;;;5.90;4.20;;;3.10;99.90;;;;;;6267891;22;20659;-86
2023/01/31 13:14:18;;;;;;;8.00;5.33;;;3.40;99.90;;;;;;6269021;22;20414;-84
2023/01/31 13:16:48;;;;;;;7.37;5.53;;;3.40;99.90;;;;;;6266068;23;20399;-90
2023/01/31 13:19:22;;;;;;;6.20;4.80;;;3.40;99.90;;;;;;6265525;22;20747;-83
2023/01/31 13:21:54;;;;;;;7.50;5.00;;;3.90;99.90;;;;;;6273519;23;20426;-87
2023/01/31 13:24:32;;;;;;;8.07;4.93;;;4.10;99.90;;;;;;6273235;22;20408;-82
2023/01/31 13:29:38;;;;;;;6.20;4.90;;;4.20;99.90;;;;;;6273630;22;20513;-86
2023/01/31 13:34:44;;;;;;;10.33;6.53;;;3.70;99.90;;;;;;6271151;22;20482;-90
2023/01/31 13:37:19;;;;;;;10.03;6.60;;;5.00;99.90;;;;;;6267221;23;20374;-88
2023/01/31 13:39:50;;;;;;;5.87;4.37;;;6.80;99.90;;;;;;6270984;23;20453;-90
2023/01/31 13:42:18;;;;;;;6.63;3.90;;;4.30;99.90;;;;;;6271078;23;20421;-85
2023/01/31 13:44:48;;;;;;;9.70;4.60;;;4.90;99.90;;;;;;6269768;23;20393;-91
2023/01/31 13:47:22;;;;;;;5.80;4.70;;;3.80;99.90;;;;;;6267822;23;20422;-89
2023/01/31 13:49:53;;;;;;;8.57;5.13;;;2.50;99.90;;;;;;6266521;23;20891;-89
2023/01/31 13:52:26;;;;;;;7.60;4.10;;;3.80;99.90;;;;;;6271400;22;20436;-87
2023/01/31 13:54:58;;;;;;;6.90;5.00;;;3.00;99.90;;;;;;6250994;22;20496;-88
2023/01/31 14:00:10;;;;;;;7.73;5.27;;;3.40;99.90;;;;;;6270577;22;20437;-90
2023/01/31 14:02:38;;;;;;;5.90;4.33;;;4.10;99.90;;;;;;6263825;22;20436;-84
2023/01/31 14:18:02;;;;;;;9.47;4.70;;;3.50;99.90;;;;;;6249660;22;20862;-89
2023/01/31 14:20:33;;;;;;;7.83;4.80;;;3.10;99.90;;;;;;6262240;23;20457;-81
2023/01/31 14:23:32;;;;;;;10.83;6.10;;;3.30;99.90;;;;;;6262660;22;20440;-85
2023/01/31 14:25:59;;;;;;;12.70;4.60;;;3.30;99.90;;;;;;6111481;23;20422;-81
2023/01/31 14:28:26;;;;;;;10.80;7.17;;;2.40;99.90;;;;;;6262524;23;20395;-88
2023/01/31 14:31:03;;;;;;;10.30;4.87;;;2.50;99.90;;;;;;6246548;23;20418;-83
2023/01/31 14:33:32;;;;;;;7.07;4.37;;;3.30;99.90;;;;;;6244815;23;20435;-83
2023/01/31 14:36:32;;;;;;;5.70;5.17;;;3.30;99.90;;;;;;6246116;23;20453;-85
2023/01/31 14:39:50;;;;;;;5.73;3.83;;;3.30;99.90;;;;;;6248374;23;20434;-80
2023/01/31 14:42:54;;;;;;;11.63;5.10;;;3.30;99.90;;;;;;6200086;23;20494;-81
2023/01/31 14:46:02;;;;;;;4.40;3.97;;;3.30;99.90;;;;;;6252080;23;20409;-85
2023/01/31 14:48:56;;;;;;;6.70;4.53;;;3.20;99.90;;;;;;6261608;23;20497;-90
2023/01/31 14:51:31;;;;;;;8.63;4.63;;;3.50;99.90;;;;;;6250214;23;20461;-86
2023/01/31 14:54:27;;;;;;;15.03;6.57;;;3.70;99.90;;;;;;6236688;23;20415;-84
2023/01/31 14:57:14;;;;;;;11.50;5.90;;;3.70;99.90;;;;;;6226899;23;20425;-85
2023/01/31 14:59:52;;;;;;;9.80;5.37;;;3.20;99.90;;;;;;6217847;23;20497;-82
2023/01/31 15:02:47;;;;;;;6.43;3.90;;;3.10;99.90;;;;;;6208192;23;20415;-79
2023/01/31 15:05:18;;;;;;;9.50;5.30;;;3.30;99.90;;;;;;6203910;23;20430;-78
2023/01/31 15:08:27;;;;;;;8.97;4.80;;;3.30;99.90;;;;;;6206794;23;20410;-79
2023/01/31 15:11:04;;;;;;;5.90;3.87;;;3.40;99.90;;;;;;6205844;23;20494;-78
2023/01/31 15:13:52;;;;;;;6.03;5.07;;;3.30;99.90;;;;;;6204475;23;20477;-80
2023/01/31 15:16:22;;;;;;;8.97;4.33;;;3.40;99.90;;;;;;6198187;23;20415;-78
2023/01/31 15:18:53;;;;;;;4.80;4.17;;;3.40;99.90;;;;;;6204857;23;21022;-78
2023/01/31 15:21:26;;;;;;;8.07;5.40;;;3.10;99.90;;;;;;6204588;23;20502;-83
2023/01/31 15:23:55;;;;;;;7.00;4.97;;;3.40;99.90;;;;;;6204730;23;20883;-78
2023/01/31 15:26:23;;;;;;;6.30;4.63;;;3.70;99.90;;;;;;6205526;23;20912;-78
2023/01/31 15:28:52;;;;;;;5.30;4.20;;;3.00;99.90;;;;;;6205368;23;20458;-79
2023/01/31 15:31:26;;;;;;;4.63;3.67;;;3.20;99.90;;;;;;6205318;23;20442;-79
2023/01/31 15:33:58;;;;;;;5.50;4.63;;;3.30;99.90;;;;;;6206681;23;20424;-78
2023/01/31 15:36:31;;;;;;;9.97;5.20;;;3.30;99.90;;;;;;6207314;23;20407;-79
2023/01/31 15:39:02;;;;;;;6.63;5.33;;;3.30;99.90;;;;;;6206632;23;20405;-81
2023/01/31 15:41:38;;;;;;;9.93;6.00;;;3.30;99.90;;;;;;6207344;23;21123;-80
2023/01/31 15:44:15;;;;;;;4.20;3.80;;;3.30;99.90;;;;;;6206934;23;20406;-78
2023/01/31 15:46:44;;;;;;;7.43;5.10;;;3.30;99.90;;;;;;6209396;23;20421;-78
2023/01/31 15:49:24;;;;;;;8.60;5.33;;;3.30;99.90;;;;;;6206191;23;20428;-78
2023/01/31 15:52:11;;;;;;;6.50;5.57;;;3.10;99.90;;;;;;6207449;23;20398;-78
2023/01/31 15:54:39;;;;;;;8.60;5.83;;;3.40;99.90;;;;;;6207608;23;20435;-78
2023/01/31 15:57:13;;;;;;;6.87;4.23;;;3.30;99.90;;;;;;6208573;23;20469;-77
2023/01/31 15:59:44;;;;;;;6.37;4.67;;;3.20;99.90;;;;;;6207936;23;20417;-78
2023/01/31 16:02:20;;;;;;;9.20;4.97;;;3.30;99.90;;;;;;6207864;23;20437;-78
2023/01/31 16:04:47;;;;;;;6.57;4.73;;;3.30;99.90;;;;;;6209013;23;20757;-86
2023/01/31 16:07:18;;;;;;;3.20;2.80;;;3.10;99.90;;;;;;6220841;23;20414;-85
2023/01/31 16:09:45;;;;;;;9.50;4.20;;;3.30;99.90;;;;;;6215079;23;20922;-81
2023/01/31 16:12:13;;;;;;;8.80;4.73;;;3.20;99.90;;;;;;6208179;23;20684;-81
2023/01/31 16:14:41;;;;;;;7.33;5.07;;;3.20;99.90;;;;;;6208388;23;20925;-89
2023/01/31 16:17:34;;;;;;;7.50;4.80;;;3.20;99.90;;;;;;6218919;22;21278;31
2023/01/31 16:20:01;;;;;;;9.00;5.27;;;3.40;99.90;;;;;;6201323;22;20455;-81
2023/01/31 16:22:31;;;;;;;11.10;4.90;;;3.90;99.90;;;;;;6227441;23;20411;-80
2023/01/31 16:25:00;;;;;;;6.33;4.77;;;4.70;99.90;;;;;;6227529;23;20425;-87
2023/01/31 16:27:30;;;;;;;10.73;5.50;;;3.40;99.90;;;;;;6237074;23;20454;-80
2023/01/31 16:30:06;;;;;;;7.80;4.70;;;3.20;99.90;;;;;;6217452;22;21760;-89
2023/01/31 16:32:42;;;;;;;7.90;5.37;;;3.00;99.90;;;;;;6237051;23;20425;-91
2023/01/31 16:40:28;;;;;;;8.90;6.13;;;3.40;99.90;;;;;;6224234;22;20480;-90
2023/01/31 16:43:17;;;;;;;5.50;4.00;;;3.90;99.90;;;;;;6240562;22;20395;-91
2023/01/31 16:58:52;;;;;;;10.63;5.50;;;3.40;99.90;;;;;;6230393;22;20477;-81
2023/01/31 17:01:26;;;;;;;11.27;6.40;;;3.40;99.90;;;;;;6270389;22;20435;-84
2023/01/31 17:04:06;;;;;;;9.00;5.67;;;6.60;99.90;;;;;;6225480;22;21291;-79
2023/01/31 17:09:16;;;;;;;10.63;5.70;;;3.60;99.90;;;;;;6271866;22;20547;-82
2023/01/31 17:14:19;;;;;;;10.27;5.00;;;3.40;99.90;;;;;;6260764;22;20461;-83
2023/01/31 17:16:50;;;;;;;10.17;6.87;;;4.00;99.90;;;;;;6267173;22;20430;-83
2023/01/31 17:19:17;;;;;;;7.47;5.60;;;5.50;99.90;;;;;;6259964;22;20612;-83
2023/01/31 17:21:44;;;;;;;11.00;6.13;;;4.00;99.90;;;;;;6255696;23;20533;-83
2023/01/31 17:26:47;;;;;;;8.00;5.20;;;3.50;99.90;;;;;;6232794;23;20589;-89
2023/01/31 17:29:14;;;;;;;9.57;6.27;;;3.70;99.90;;;;;;6231155;23;20421;-86
2023/01/31 17:31:42;;;;;;;8.13;5.23;;;5.40;99.90;;;;;;6228879;23;20407;-87
2023/01/31 17:34:13;;;;;;;8.43;6.07;;;3.50;99.90;;;;;;6228186;23;20407;-86
2023/01/31 17:36:40;;;;;;;9.70;6.27;;;6.20;99.90;;;;;;6226552;23;20415;-87
2023/01/31 17:41:45;;;;;;;6.47;4.37;;;3.50;99.90;;;;;;6231988;22;20462;-85
2023/01/31 17:44:22;;;;;;;7.97;5.83;;;7.00;99.90;;;;;;6233327;23;20403;-88
2023/01/31 17:49:27;;;;;;;10.80;7.10;;;3.50;99.90;;;;;;6255278;22;20467;-89
2023/01/31 17:51:56;;;;;;;10.70;6.40;;;4.00;99.90;;;;;;6270272;22;20394;-82
2023/01/31 18:02:05;;;;;;;6.77;4.93;;;3.50;99.90;;;;;;6229001;22;20562;-89
2023/01/31 18:04:34;;;;;;;8.90;5.10;;;3.20;99.90;;;;;;6225015;23;20408;-82
2023/01/31 18:07:01;;;;;;;8.17;5.27;;;3.60;99.90;;;;;;6214885;23;20488;-89
2023/01/31 18:12:01;;;;;;;7.17;4.47;;;3.50;99.90;;;;;;6270307;23;20436;-81
2023/01/31 18:14:27;;;;;;;10.53;6.37;;;5.70;99.90;;;;;;6249634;22;20437;-90
2023/01/31 18:16:59;;;;;;;9.47;6.20;;;3.50;99.90;;;;;;6251485;23;20421;-88
2023/01/31 18:19:27;;;;;;;10.90;6.03;;;4.20;99.90;;;;;;6248676;23;20399;-86
2023/01/31 18:21:56;;;;;;;7.93;6.37;;;3.30;99.90;;;;;;6237098;22;20478;-86
2023/01/31 18:24:23;;;;;;;9.67;6.23;;;3.60;99.90;;;;;;6252371;23;20406;-88
2023/01/31 18:26:50;;;;;;;9.13;5.70;;;3.00;99.90;;;;;;6252073;23;20406;-90
2023/01/31 18:29:19;;;;;;;6.00;4.90;;;5.00;99.90;;;;;;6243541;23;20407;-84
2023/01/31 18:31:46;;;;;;;5.97;4.57;;;3.80;99.90;;;;;;6244576;23;20440;-88
2023/01/31 18:34:13;;;;;;;8.33;5.30;;;3.50;99.90;;;;;;6246884;23;20469;-83
2023/01/31 18:36:40;;;;;;;10.20;6.40;;;5.90;99.90;;;;;;6246573;23;20433;-82
2023/01/31 18:39:09;;;;;;;5.27;3.93;;;2.50;99.90;;;;;;6253172;23;20410;-86
2023/01/31 18:41:36;;;;;;;7.00;4.40;;;3.60;99.90;;;;;;6259135;23;20438;-89
2023/01/31 18:44:04;;;;;;;8.73;6.20;;;6.30;99.90;;;;;;6249582;23;20421;-90
2023/01/31 18:46:31;;;;;;;6.57;4.80;;;3.50;99.90;;;;;;6242785;23;20399;-85
2023/01/31 18:48:58;;;;;;;4.97;4.47;;;3.50;99.90;;;;;;6248412;23;20421;-80
2023/01/31 18:51:24;;;;;;;7.17;5.40;;;3.50;99.90;;;;;;6249080;22;20398;-88
2023/01/31 18:53:51;;;;;;;6.37;5.23;;;3.70;99.90;;;;;;6260522;23;20497;-88
2023/01/31 18:58:55;;;;;;;7.20;5.60;;;3.60;99.90;;;;;;6236817;22;20461;-88
2023/01/31 19:01:23;;;;;;;9.77;5.60;;;3.80;99.90;;;;;;6264774;22;20492;-91
2023/01/31 19:03:52;;;;;;;8.03;5.57;;;4.70;99.90;;;;;;6257361;23;20395;-90
2023/01/31 19:06:21;;;;;;;6.17;5.00;;;3.60;99.90;;;;;;6251128;23;20420;-89
2023/01/31 19:08:49;;;;;;;8.33;6.40;;;3.80;99.90;;;;;;6249573;23;20495;-83
2023/01/31 19:11:18;;;;;;;8.60;4.87;;;3.60;99.90;;;;;;6251040;23;20510;-85
2023/01/31 19:13:45;;;;;;;6.47;4.67;;;3.60;99.90;;;;;;6249736;23;20420;-84
2023/01/31 19:16:16;;;;;;;8.50;5.27;;;3.60;99.90;;;;;;6246765;23;20410;-83
2023/01/31 19:18:44;;;;;;;4.90;4.40;;;3.50;99.90;;;;;;6266545;22;20409;-87
2023/01/31 19:21:14;;;;;;;8.17;4.27;;;3.60;99.90;;;;;;6262960;22;20458;-89
2023/01/31 19:23:41;;;;;;;7.13;5.07;;;3.50;99.90;;;;;;6257599;23;20480;-91
2023/01/31 19:26:08;;;;;;;6.87;5.40;;;3.60;99.90;;;;;;6270802;22;20421;-91
2023/01/31 19:28:35;;;;;;;11.57;5.80;;;3.60;99.90;;;;;;6257861;23;20418;-93
2023/01/31 19:33:41;;;;;;;6.27;5.27;;;4.60;99.90;;;;;;6253207;22;20516;-89
2023/01/31 19:36:10;;;;;;;6.80;5.60;;;4.30;99.90;;;;;;6263020;23;20471;-89
2023/01/31 19:38:37;;;;;;;6.50;5.20;;;3.70;99.90;;;;;;6265020;23;20533;-88
2023/01/31 19:41:05;;;;;;;6.40;5.27;;;4.50;99.90;;;;;;6264983;22;20470;-89
2023/01/31 19:51:32;;;;;;;5.27;3.70;;;3.70;99.90;;;;;;6226951;22;20407;-79
2023/01/31 19:54:01;;;;;;;8.87;4.70;;;3.70;99.90;;;;;;6266053;22;20441;-90
2023/01/31 19:59:04;;;;;;;6.67;5.03;;;3.80;99.90;;;;;;6253122;22;20462;-91
2023/01/31 20:01:32;;;;;;;5.83;5.30;;;5.00;99.90;;;;;;6262101;23;20483;-89
2023/01/31 20:03:59;;;;;;;6.00;4.50;;;4.30;99.90;;;;;;6259705;23;20414;-90
2023/01/31 20:06:28;;;;;;;5.53;3.60;;;3.80;99.90;;;;;;6257893;23;20432;-88
2023/01/31 20:09:03;;;;;;;6.17;3.80;;;3.70;99.90;;;;;;6260180;23;20579;-86